createdAt,value
2023-09-03T00:02:00.253Z,17.19
2023-09-03T00:04:01.876Z,17.20
2023-09-03T00:06:04.041Z,17.20
2023-09-03T00:08:05.669Z,17.20
2023-09-03T00:10:07.859Z,17.18
2023-09-03T00:12:09.679Z,17.17
2023-09-03T00:14:11.675Z,17.16
2023-09-03T00:16:13.526Z,17.14
2023-09-03T00:18:15.579Z,17.13
2023-09-03T00:20:16.935Z,17.12
2023-09-03T00:22:18.280Z,17.12
2023-09-03T00:24:19.723Z,17.12
2023-09-03T00:26:22.087Z,17.10
2023-09-03T00:28:28.168Z,17.08
2023-09-03T00:30:30.021Z,17.07
2023-09-03T00:32:32.569Z,17.05
2023-09-03T00:34:34.325Z,17.05
2023-09-03T00:36:35.755Z,17.03
2023-09-03T00:38:37.257Z,17.03
2023-09-03T00:40:39.405Z,17.01
2023-09-03T00:42:40.714Z,16.99
2023-09-03T00:44:42.014Z,17.00
2023-09-03T00:46:46.350Z,17.00
2023-09-03T00:48:47.976Z,17.00
2023-09-03T00:50:51.852Z,16.97
2023-09-03T00:52:53.445Z,16.93
2023-09-03T00:54:54.834Z,16.93
2023-09-03T00:56:56.584Z,16.93
2023-09-03T00:59:00.531Z,16.90
2023-09-03T01:01:02.082Z,16.89
2023-09-03T01:03:06.542Z,16.87
2023-09-03T01:05:08.651Z,16.85
2023-09-03T01:07:13.276Z,16.84
2023-09-03T01:09:16.237Z,16.83
2023-09-03T01:11:47.702Z,16.85
2023-09-03T01:14:37.461Z,16.87
2023-09-03T01:16:54.504Z,16.85
2023-09-03T01:18:57.012Z,16.84
2023-09-03T01:21:10.861Z,16.84
2023-09-03T01:23:37.413Z,16.83
2023-09-03T01:26:04.330Z,16.82
2023-09-03T01:28:38.065Z,16.81
2023-09-03T01:30:39.719Z,16.79
2023-09-03T01:32:41.373Z,16.76
2023-09-03T01:34:45.490Z,16.76
2023-09-03T01:36:48.722Z,16.73
2023-09-03T01:38:50.689Z,16.74
2023-09-03T01:41:02.779Z,16.74
2023-09-03T01:43:05.228Z,16.73
2023-09-03T01:45:08.606Z,16.72
2023-09-03T01:47:45.283Z,16.69
2023-09-03T01:49:59.120Z,16.65
2023-09-03T01:52:29.643Z,16.62
2023-09-03T01:54:39.283Z,16.58
2023-09-03T01:56:49.970Z,16.56
2023-09-03T01:58:55.867Z,16.53
2023-09-03T02:01:03.412Z,16.50
2023-09-03T02:03:11.244Z,16.48
2023-09-03T02:05:14.225Z,16.48
2023-09-03T02:07:15.500Z,16.48
2023-09-03T02:09:17.050Z,16.45
2023-09-03T02:11:18.582Z,16.44
2023-09-03T02:13:20.484Z,16.43
2023-09-03T02:15:22.219Z,16.42
2023-09-03T02:17:25.353Z,16.41
2023-09-03T02:19:26.770Z,16.39
2023-09-03T02:21:28.433Z,16.38
2023-09-03T02:23:34.153Z,16.38
2023-09-03T02:25:36.036Z,16.40
2023-09-03T02:27:38.035Z,16.41
2023-09-03T02:29:40.024Z,16.42
2023-09-03T02:31:41.574Z,16.42
2023-09-03T02:33:43.937Z,16.42
2023-09-03T02:35:45.454Z,16.41
2023-09-03T02:37:47.453Z,16.42
2023-09-03T02:39:49.297Z,16.42
2023-09-03T02:41:50.659Z,16.41
2023-09-03T02:43:52.203Z,16.43
2023-09-03T02:45:54.862Z,16.45
2023-09-03T02:47:56.921Z,16.45
2023-09-03T02:49:58.369Z,16.46
2023-09-03T02:51:59.638Z,16.45
2023-09-03T02:54:01.018Z,16.45
2023-09-03T02:56:02.544Z,16.45
2023-09-03T02:58:04.189Z,16.45
2023-09-03T03:00:06.626Z,16.45
2023-09-03T03:02:08.047Z,16.44
2023-09-03T03:04:11.270Z,16.43
2023-09-03T03:06:13.723Z,16.43
2023-09-03T03:08:15.044Z,16.43
2023-09-03T03:10:17.076Z,16.44
2023-09-03T03:12:19.233Z,16.44
2023-09-03T03:14:23.385Z,16.42
2023-09-03T03:16:24.973Z,16.38
2023-09-03T03:18:28.024Z,16.35
2023-09-03T03:20:29.862Z,16.35
2023-09-03T03:22:31.312Z,16.35
2023-09-03T03:24:32.793Z,16.33
2023-09-03T03:26:34.829Z,16.33
2023-09-03T03:28:41.018Z,16.35
2023-09-03T03:30:44.472Z,16.36
2023-09-03T03:32:46.189Z,16.38
2023-09-03T03:34:48.325Z,16.37
2023-09-03T03:36:49.669Z,16.37
2023-09-03T03:38:50.990Z,16.36
2023-09-03T03:40:53.023Z,16.36
2023-09-03T03:42:54.353Z,16.35
2023-09-03T03:44:55.746Z,16.33
2023-09-03T03:46:57.819Z,16.32
2023-09-03T03:49:00.241Z,16.30
2023-09-03T03:51:03.327Z,16.30
2023-09-03T03:53:04.625Z,16.33
2023-09-03T03:55:06.612Z,16.34
2023-09-03T03:57:08.180Z,16.37
2023-09-03T03:59:09.429Z,16.37
2023-09-03T04:01:16.998Z,16.37
2023-09-03T04:03:20.220Z,16.37
2023-09-03T04:05:23.662Z,16.36
2023-09-03T04:07:25.266Z,16.36
2023-09-03T04:09:27.688Z,16.35
2023-09-03T04:11:33.527Z,16.33
2023-09-03T04:13:36.692Z,16.31
2023-09-03T04:15:38.661Z,16.32
2023-09-03T04:17:40.351Z,16.32
2023-09-03T04:19:44.104Z,16.32
2023-09-03T04:21:45.869Z,16.31
2023-09-03T04:23:47.595Z,16.31
2023-09-03T04:25:52.013Z,16.30
2023-09-03T04:27:54.494Z,16.29
2023-09-03T04:29:56.873Z,16.28
2023-09-03T04:31:59.165Z,16.26
2023-09-03T04:34:01.819Z,16.24
2023-09-03T04:36:05.170Z,16.25
2023-09-03T04:38:09.234Z,16.26
2023-09-03T04:40:11.147Z,16.27
2023-09-03T04:42:12.492Z,16.26
2023-09-03T04:44:14.426Z,16.27
2023-09-03T04:46:19.244Z,16.26
2023-09-03T04:48:22.216Z,16.26
2023-09-03T04:50:23.885Z,16.27
2023-09-03T04:52:25.578Z,16.26
2023-09-03T04:54:26.930Z,16.25
2023-09-03T04:56:28.345Z,16.24
2023-09-03T04:58:29.667Z,16.24
2023-09-03T05:00:31.171Z,16.26
2023-09-03T05:02:33.020Z,16.29
2023-09-03T05:04:34.567Z,16.30
2023-09-03T05:06:37.350Z,16.31
2023-09-03T05:08:38.880Z,16.31
2023-09-03T05:10:40.270Z,16.33
2023-09-03T05:12:44.148Z,16.33
2023-09-03T05:14:45.581Z,16.34
2023-09-03T05:16:46.878Z,16.30
2023-09-03T05:18:48.204Z,16.25
2023-09-03T05:20:49.722Z,16.23
2023-09-03T05:22:58.442Z,16.22
2023-09-03T05:24:59.936Z,16.22
2023-09-03T05:27:02.229Z,16.19
2023-09-03T05:29:04.309Z,16.14
2023-09-03T05:31:06.548Z,16.13
2023-09-03T05:33:12.326Z,16.13
2023-09-03T05:35:15.482Z,16.13
2023-09-03T05:37:17.345Z,16.16
2023-09-03T05:39:25.860Z,16.17
2023-09-03T05:41:27.484Z,16.18
2023-09-03T05:43:29.076Z,16.21
2023-09-03T05:45:31.418Z,16.25
2023-09-03T05:47:35.385Z,16.27
2023-09-03T05:49:39.015Z,16.31
2023-09-03T05:51:41.390Z,16.34
2023-09-03T05:53:43.162Z,16.34
2023-09-03T05:55:45.409Z,16.34
2023-09-03T05:57:46.932Z,16.35
2023-09-03T05:59:51.710Z,16.37
2023-09-03T06:01:54.369Z,16.44
2023-09-03T06:03:55.751Z,16.50
2023-09-03T06:06:00.431Z,16.56
2023-09-03T06:08:02.942Z,16.63
2023-09-03T06:10:05.512Z,16.70
2023-09-03T06:12:07.480Z,16.75
2023-09-03T06:14:09.324Z,16.80
2023-09-03T06:16:11.567Z,16.83
2023-09-03T06:18:13.178Z,16.80
2023-09-03T06:20:15.539Z,16.80
2023-09-03T06:22:17.049Z,16.82
2023-09-03T06:24:18.708Z,16.88
2023-09-03T06:26:20.292Z,16.92
2023-09-03T06:28:22.069Z,16.95
2023-09-03T06:30:24.634Z,16.99
2023-09-03T06:32:29.010Z,17.02
2023-09-03T06:34:32.015Z,17.03
2023-09-03T06:36:33.635Z,17.07
2023-09-03T06:38:34.912Z,17.12
2023-09-03T06:40:36.226Z,17.21
2023-09-03T06:42:38.576Z,17.24
2023-09-03T06:44:39.998Z,17.28
2023-09-03T06:46:41.662Z,17.32
2023-09-03T06:48:43.614Z,17.39
2023-09-03T06:50:45.438Z,17.48
2023-09-03T06:52:47.469Z,17.55
2023-09-03T06:54:49.239Z,17.61
2023-09-03T06:56:50.723Z,17.65
2023-09-03T06:58:52.083Z,17.69
2023-09-03T07:00:56.166Z,17.72
2023-09-03T07:02:58.185Z,17.76
2023-09-03T07:05:00.826Z,17.78
2023-09-03T07:07:06.897Z,17.83
2023-09-03T07:09:11.151Z,17.88
2023-09-03T07:11:13.765Z,17.92
2023-09-03T07:13:15.114Z,17.92
2023-09-03T07:15:16.627Z,17.89
2023-09-03T07:17:18.609Z,17.90
2023-09-03T07:19:23.286Z,17.91
2023-09-03T07:21:24.620Z,17.90
2023-09-03T07:23:25.835Z,17.90
2023-09-03T07:25:27.115Z,17.91
2023-09-03T07:27:29.720Z,17.93
2023-09-03T07:29:31.127Z,17.93
2023-09-03T07:31:32.533Z,17.90
2023-09-03T07:33:35.001Z,17.88
2023-09-03T07:35:36.769Z,17.91
2023-09-03T07:37:38.444Z,17.95
2023-09-03T07:39:40.637Z,18.03
2023-09-03T07:41:43.356Z,18.07
2023-09-03T07:43:45.029Z,18.11
2023-09-03T07:45:46.320Z,18.18
2023-09-03T07:47:47.708Z,18.26
2023-09-03T07:49:49.106Z,18.34
2023-09-03T07:51:50.788Z,18.38
2023-09-03T07:53:52.367Z,18.40
2023-09-03T07:55:54.103Z,18.43
2023-09-03T07:57:55.457Z,18.50
2023-09-03T07:59:57.901Z,18.56
2023-09-03T08:01:59.963Z,18.65
2023-09-03T08:04:01.773Z,18.73
2023-09-03T08:06:05.757Z,18.79
2023-09-03T08:08:07.278Z,18.86
2023-09-03T08:10:09.149Z,18.90
2023-09-03T08:12:10.453Z,18.98
2023-09-03T08:14:12.377Z,19.06
2023-09-03T08:16:14.691Z,19.11
2023-09-03T08:18:21.076Z,19.13
2023-09-03T08:20:23.730Z,19.15
2023-09-03T08:22:26.527Z,19.23
2023-09-03T08:24:27.985Z,19.27
2023-09-03T08:26:29.299Z,19.31
2023-09-03T08:28:30.907Z,19.37
2023-09-03T08:30:32.192Z,19.40
2023-09-03T08:32:33.676Z,19.34
2023-09-03T08:34:35.378Z,19.28
2023-09-03T08:36:36.717Z,19.26
2023-09-03T08:38:38.121Z,19.28
2023-09-03T08:40:41.631Z,19.28
2023-09-03T08:42:45.881Z,19.33
2023-09-03T08:44:52.561Z,19.39
2023-09-03T08:46:59.547Z,19.44
2023-09-03T08:49:01.715Z,19.49
2023-09-03T08:51:03.243Z,19.56
2023-09-03T08:53:05.089Z,19.62
2023-09-03T08:55:07.855Z,19.68
2023-09-03T08:57:09.842Z,19.75
2023-09-03T08:59:15.022Z,19.79
2023-09-03T09:01:17.386Z,19.83
2023-09-03T09:03:19.871Z,19.93
2023-09-03T09:05:22.018Z,20.02
2023-09-03T09:07:23.545Z,20.01
2023-09-03T09:09:26.766Z,19.98
2023-09-03T09:11:33.991Z,20.03
2023-09-03T09:13:38.300Z,20.08
2023-09-03T09:15:43.126Z,20.15
2023-09-03T09:17:44.756Z,20.20
2023-09-03T09:19:46.128Z,20.25
2023-09-03T09:21:47.476Z,20.30
2023-09-03T09:23:49.330Z,20.38
2023-09-03T09:25:51.526Z,20.48
2023-09-03T09:27:57.865Z,20.57
2023-09-03T09:30:09.648Z,20.66
2023-09-03T09:32:23.373Z,20.75
2023-09-03T09:34:27.294Z,20.81
2023-09-03T09:36:30.929Z,20.86
2023-09-03T09:38:37.969Z,20.88
2023-09-03T09:40:39.317Z,20.85
2023-09-03T09:42:55.707Z,20.83
2023-09-03T09:45:00.865Z,20.84
2023-09-03T09:47:17.059Z,20.82
2023-09-03T09:49:18.385Z,20.84
2023-09-03T09:51:20.087Z,20.83
2023-09-03T09:53:24.089Z,20.85
2023-09-03T09:55:32.795Z,20.89
2023-09-03T09:57:36.628Z,20.92
2023-09-03T09:59:40.332Z,20.97
2023-09-03T10:01:47.096Z,21.02
2023-09-03T10:03:50.057Z,21.01
2023-09-03T10:05:52.099Z,20.95
2023-09-03T10:07:55.982Z,20.99
2023-09-03T10:09:57.908Z,21.05
2023-09-03T10:11:59.994Z,21.11
2023-09-03T10:14:01.512Z,21.19
2023-09-03T10:16:07.161Z,21.29
2023-09-03T10:18:09.043Z,21.30
2023-09-03T10:20:15.479Z,21.31
2023-09-03T10:22:19.574Z,21.36
2023-09-03T10:24:24.101Z,21.39
2023-09-03T10:26:31.525Z,21.40
2023-09-03T10:28:37.264Z,21.43
2023-09-03T10:30:43.669Z,21.48
2023-09-03T10:32:47.698Z,21.54
2023-09-03T10:34:49.231Z,21.57
2023-09-03T10:37:10.783Z,21.59
2023-09-03T10:39:26.960Z,21.62
2023-09-03T10:41:29.040Z,21.67
2023-09-03T10:43:30.761Z,21.75
2023-09-03T10:45:32.075Z,21.82
2023-09-03T10:48:02.349Z,21.90
2023-09-03T10:50:04.634Z,21.97
2023-09-03T10:52:32.316Z,22.03
2023-09-03T10:54:34.061Z,22.05
2023-09-03T10:57:04.328Z,22.01
2023-09-03T10:59:06.152Z,21.98
2023-09-03T11:01:19.306Z,21.96
2023-09-03T11:03:24.138Z,21.97
2023-09-03T11:05:28.175Z,21.98
2023-09-03T11:07:30.052Z,21.96
2023-09-03T11:09:31.607Z,21.93
2023-09-03T11:11:35.689Z,21.89
2023-09-03T11:13:39.546Z,21.85
2023-09-03T11:15:55.727Z,21.84
2023-09-03T11:18:00.180Z,21.86
2023-09-03T11:20:01.709Z,21.85
2023-09-03T11:22:03.923Z,21.83
2023-09-03T11:24:13.746Z,21.86
2023-09-03T11:26:15.285Z,21.90
2023-09-03T11:28:17.081Z,21.92
2023-09-03T11:30:18.825Z,21.93
2023-09-03T11:32:35.664Z,21.92
2023-09-03T11:34:38.339Z,21.95
2023-09-03T11:36:40.468Z,21.95
2023-09-03T11:38:42.825Z,21.93
2023-09-03T11:40:45.220Z,21.92
2023-09-03T11:42:50.461Z,21.89
2023-09-03T11:44:52.524Z,21.89
2023-09-03T11:47:02.341Z,21.91
2023-09-03T11:49:05.921Z,21.91
2023-09-03T11:51:07.496Z,21.92
2023-09-03T11:53:10.851Z,21.92
2023-09-03T11:55:13.423Z,21.92
2023-09-03T11:57:16.650Z,21.95
2023-09-03T11:59:19.120Z,21.97
2023-09-03T12:01:20.608Z,21.98
2023-09-03T12:03:25.689Z,22.00
2023-09-03T12:05:28.084Z,22.02
2023-09-03T12:07:29.747Z,22.05
2023-09-03T12:09:31.896Z,22.08
2023-09-03T12:11:33.480Z,22.11
2023-09-03T12:13:39.457Z,22.15
2023-09-03T12:15:41.860Z,22.18
2023-09-03T12:17:43.518Z,22.21
2023-09-03T12:19:45.141Z,22.25
2023-09-03T12:21:53.065Z,22.29
2023-09-03T12:23:54.578Z,22.29
2023-09-03T12:25:58.997Z,22.32
2023-09-03T12:28:00.883Z,22.33
2023-09-03T12:30:05.603Z,22.38
2023-09-03T12:32:15.839Z,22.41
2023-09-03T12:34:35.618Z,22.45
2023-09-03T12:36:57.614Z,22.49
2023-09-03T12:39:06.285Z,22.54
2023-09-03T12:41:08.022Z,22.56
2023-09-03T12:43:10.407Z,22.58
2023-09-03T12:45:12.444Z,22.60
2023-09-03T12:47:14.265Z,22.62
2023-09-03T12:49:16.271Z,22.64
2023-09-03T12:51:18.130Z,22.65
2023-09-03T12:53:19.809Z,22.64
2023-09-03T12:55:22.929Z,22.66
2023-09-03T12:57:25.082Z,22.66
2023-09-03T12:59:26.619Z,22.70
2023-09-03T13:01:28.263Z,22.70
2023-09-03T13:03:29.656Z,22.70
2023-09-03T13:05:31.158Z,22.69
2023-09-03T13:07:32.527Z,22.68
2023-09-03T13:09:33.841Z,22.66
2023-09-03T13:11:35.771Z,22.65
2023-09-03T13:13:37.078Z,22.64
2023-09-03T13:15:39.664Z,22.63
2023-09-03T13:17:41.129Z,22.64
2023-09-03T13:19:43.236Z,22.65
2023-09-03T13:21:44.853Z,22.68
2023-09-03T13:23:47.356Z,22.71
2023-09-03T13:25:48.924Z,22.72
2023-09-03T13:27:50.201Z,22.72
2023-09-03T13:29:51.454Z,22.74
2023-09-03T13:31:53.444Z,22.74
2023-09-03T13:33:56.693Z,22.75
2023-09-03T13:35:58.422Z,22.75
2023-09-03T13:38:02.752Z,22.77
2023-09-03T13:40:07.768Z,22.78
2023-09-03T13:42:09.636Z,22.80
2023-09-03T13:44:11.838Z,22.82
2023-09-03T13:46:14.487Z,22.85
2023-09-03T13:48:16.641Z,22.87
2023-09-03T13:50:18.496Z,22.89
2023-09-03T13:52:19.817Z,22.91
2023-09-03T13:54:21.696Z,22.94
2023-09-03T13:56:23.195Z,22.96
2023-09-03T13:58:24.974Z,22.99
2023-09-03T14:00:26.320Z,22.99
2023-09-03T14:02:30.333Z,22.98
2023-09-03T14:04:32.083Z,22.99
2023-09-03T14:06:34.976Z,23.01
2023-09-03T14:08:36.376Z,23.03
2023-09-03T14:10:37.953Z,23.03
2023-09-03T14:12:39.653Z,23.03
2023-09-03T14:14:40.960Z,23.02
2023-09-03T14:16:42.380Z,23.03
2023-09-03T14:18:44.337Z,23.02
2023-09-03T14:20:48.048Z,23.02
2023-09-03T14:22:53.655Z,23.02
2023-09-03T14:24:55.466Z,23.00
2023-09-03T14:26:57.254Z,22.99
2023-09-03T14:29:01.128Z,22.96
2023-09-03T14:31:03.308Z,22.99
2023-09-03T14:33:06.998Z,23.01
2023-09-03T14:35:08.623Z,23.02
2023-09-03T14:37:10.522Z,23.03
2023-09-03T14:39:12.045Z,23.04
2023-09-03T14:41:13.409Z,23.05
2023-09-03T14:43:14.791Z,23.07
2023-09-03T14:45:16.084Z,23.09
2023-09-03T14:47:18.057Z,23.10
2023-09-03T14:49:35.655Z,23.09
2023-09-03T14:51:39.679Z,23.08
2023-09-03T14:53:41.077Z,23.07
2023-09-03T14:55:44.435Z,23.08
2023-09-03T14:57:46.500Z,23.10
2023-09-03T14:59:49.244Z,23.11
2023-09-03T15:01:50.849Z,23.11
2023-09-03T15:03:52.705Z,23.12
2023-09-03T15:05:56.417Z,23.12
2023-09-03T15:07:57.888Z,23.14
2023-09-03T15:10:00.097Z,23.15
2023-09-03T15:12:01.417Z,23.15
2023-09-03T15:14:03.455Z,23.17
2023-09-03T15:16:07.389Z,23.18
2023-09-03T15:18:09.564Z,23.19
2023-09-03T15:20:11.443Z,23.19
2023-09-03T15:22:12.972Z,23.18
2023-09-03T15:24:15.576Z,23.18
2023-09-03T15:26:18.383Z,23.16
2023-09-03T15:28:21.686Z,23.13
2023-09-03T15:30:23.165Z,23.13
2023-09-03T15:32:24.897Z,23.13
2023-09-03T15:34:26.182Z,23.13
2023-09-03T15:36:27.594Z,23.13
2023-09-03T15:38:28.928Z,23.14
2023-09-03T15:40:30.257Z,23.13
2023-09-03T15:42:31.529Z,23.11
2023-09-03T15:44:32.860Z,23.09
2023-09-03T15:46:35.159Z,23.07
2023-09-03T15:48:36.494Z,23.05
2023-09-03T15:50:41.686Z,23.04
2023-09-03T15:52:43.480Z,23.04
2023-09-03T15:54:47.010Z,23.05
2023-09-03T15:56:48.361Z,23.04
2023-09-03T15:58:51.127Z,23.02
2023-09-03T16:00:53.588Z,23.02
2023-09-03T16:02:55.956Z,23.01
2023-09-03T16:04:57.316Z,23.00
2023-09-03T16:06:58.663Z,23.00
2023-09-03T16:09:00.452Z,23.00
2023-09-03T16:11:08.344Z,22.99
2023-09-03T16:13:09.796Z,22.96
2023-09-03T16:15:11.232Z,22.95
2023-09-03T16:17:12.588Z,22.93
2023-09-03T16:19:14.440Z,22.90
2023-09-03T16:21:16.429Z,22.87
2023-09-03T16:23:18.590Z,22.85
2023-09-03T16:25:21.575Z,22.81
2023-09-03T16:27:22.979Z,22.77
2023-09-03T16:29:25.680Z,22.74
2023-09-03T16:31:27.064Z,22.71
2023-09-03T16:33:29.775Z,22.69
2023-09-03T16:35:33.011Z,22.66
2023-09-03T16:37:34.342Z,22.65
2023-09-03T16:39:36.569Z,22.64
2023-09-03T16:41:37.909Z,22.64
2023-09-03T16:43:43.315Z,22.65
2023-09-03T16:45:45.157Z,22.66
2023-09-03T16:47:48.381Z,22.64
2023-09-03T16:49:52.321Z,22.64
2023-09-03T16:51:53.851Z,22.63
2023-09-03T16:53:55.331Z,22.60
2023-09-03T16:55:56.716Z,22.59
2023-09-03T16:57:58.495Z,22.56
2023-09-03T16:59:59.832Z,22.50
2023-09-03T17:02:01.883Z,22.47
2023-09-03T17:04:03.638Z,22.42
2023-09-03T17:06:05.047Z,22.38
2023-09-03T17:08:07.317Z,22.33
2023-09-03T17:10:09.453Z,22.28
2023-09-03T17:12:12.167Z,22.25
2023-09-03T17:14:14.386Z,22.22
2023-09-03T17:16:16.585Z,22.18
2023-09-03T17:18:18.074Z,22.14
2023-09-03T17:20:21.704Z,22.09
2023-09-03T17:22:23.234Z,22.04
2023-09-03T17:24:24.976Z,21.99
2023-09-03T17:26:27.342Z,21.94
2023-09-03T17:28:28.890Z,21.89
2023-09-03T17:30:30.648Z,21.85
2023-09-03T17:32:33.601Z,21.80
2023-09-03T17:34:35.153Z,21.77
2023-09-03T17:36:36.645Z,21.73
2023-09-03T17:38:37.980Z,21.69
2023-09-03T17:40:39.323Z,21.66
2023-09-03T17:42:40.632Z,21.64
2023-09-03T17:44:41.939Z,21.61
2023-09-03T17:46:43.855Z,21.58
2023-09-03T17:48:45.195Z,21.56
2023-09-03T17:50:48.385Z,21.53
2023-09-03T17:52:50.541Z,21.51
2023-09-03T17:54:51.815Z,21.48
2023-09-03T17:56:53.282Z,21.48
2023-09-03T17:58:54.930Z,21.47
2023-09-03T18:00:58.580Z,21.46
2023-09-03T18:03:00.887Z,21.45
2023-09-03T18:05:02.437Z,21.40
2023-09-03T18:07:05.666Z,21.37
2023-09-03T18:09:07.077Z,21.34
2023-09-03T18:11:12.599Z,21.32
2023-09-03T18:13:14.025Z,21.29
2023-09-03T18:15:16.975Z,21.26
2023-09-03T18:17:20.602Z,21.23
2023-09-03T18:19:22.024Z,21.20
2023-09-03T18:21:23.371Z,21.17
2023-09-03T18:23:24.698Z,21.14
2023-09-03T18:25:26.925Z,21.10
2023-09-03T18:27:28.282Z,21.07
2023-09-03T18:29:29.626Z,21.04
2023-09-03T18:31:31.232Z,20.98
2023-09-03T18:33:32.710Z,20.91
2023-09-03T18:35:35.804Z,20.84
2023-09-03T18:37:38.174Z,20.80
2023-09-03T18:39:39.672Z,20.76
2023-09-03T18:41:42.085Z,20.73
2023-09-03T18:43:43.866Z,20.67
2023-09-03T18:45:46.134Z,20.64
2023-09-03T18:47:47.829Z,20.61
2023-09-03T18:49:49.193Z,20.58
2023-09-03T18:51:50.649Z,20.56
2023-09-03T18:53:52.192Z,20.53
2023-09-03T18:55:53.740Z,20.51
2023-09-03T18:57:55.007Z,20.48
2023-09-03T18:59:56.794Z,20.45
2023-09-03T19:01:58.437Z,20.42
2023-09-03T19:04:00.915Z,20.39
2023-09-03T19:06:05.029Z,20.37
2023-09-03T19:08:08.601Z,20.33
2023-09-03T19:10:13.121Z,20.32
2023-09-03T19:12:17.923Z,20.29
2023-09-03T19:14:21.237Z,20.25
2023-09-03T19:16:23.189Z,20.19
2023-09-03T19:18:26.147Z,20.17
2023-09-03T19:20:29.543Z,20.14
2023-09-03T19:22:31.287Z,20.11
2023-09-03T19:24:34.963Z,20.09
2023-09-03T19:26:36.782Z,20.08
2023-09-03T19:28:39.222Z,20.05
2023-09-03T19:30:42.462Z,20.03
2023-09-03T19:32:46.417Z,19.98
2023-09-03T19:34:48.481Z,19.90
2023-09-03T19:36:50.438Z,19.83
2023-09-03T19:38:53.016Z,19.78
2023-09-03T19:40:54.648Z,19.73
2023-09-03T19:42:56.909Z,19.67
2023-09-03T19:44:58.739Z,19.59
2023-09-03T19:47:02.090Z,19.51
2023-09-03T19:49:07.314Z,19.46
2023-09-03T19:51:10.181Z,19.40
2023-09-03T19:53:11.744Z,19.35
2023-09-03T19:55:13.798Z,19.33
2023-09-03T19:57:15.549Z,19.31
2023-09-03T19:59:19.966Z,19.33
2023-09-03T20:01:22.085Z,19.32
2023-09-03T20:03:23.997Z,19.28
2023-09-03T20:05:26.125Z,19.26
2023-09-03T20:07:28.144Z,19.24
2023-09-03T20:09:30.044Z,19.27
2023-09-03T20:11:31.951Z,19.29
2023-09-03T20:13:33.748Z,19.30
2023-09-03T20:15:38.137Z,19.32
2023-09-03T20:17:40.885Z,19.32
2023-09-03T20:19:45.349Z,19.32
2023-09-03T20:21:49.160Z,19.30
2023-09-03T20:23:53.683Z,19.26
2023-09-03T20:25:56.849Z,19.23
2023-09-03T20:27:58.463Z,19.22
2023-09-03T20:30:00.283Z,19.19
2023-09-03T20:32:03.090Z,19.17
2023-09-03T20:34:06.964Z,19.14
2023-09-03T20:36:12.960Z,19.09
2023-09-03T20:38:18.595Z,19.04
2023-09-03T20:40:20.476Z,18.99
2023-09-03T20:42:25.134Z,18.95
2023-09-03T20:44:26.790Z,18.90
2023-09-03T20:46:28.306Z,18.86
2023-09-03T20:48:29.895Z,18.86
2023-09-03T20:50:38.293Z,18.88
2023-09-03T20:52:40.891Z,18.88
2023-09-03T20:54:43.325Z,18.87
2023-09-03T20:56:44.620Z,18.86
2023-09-03T20:58:46.433Z,18.85
2023-09-03T21:00:47.971Z,18.81
2023-09-03T21:02:49.332Z,18.79
2023-09-03T21:04:50.762Z,18.78
2023-09-03T21:06:52.254Z,18.77
2023-09-03T21:08:55.107Z,18.72
2023-09-03T21:11:00.469Z,18.66
2023-09-03T21:13:04.068Z,18.61
2023-09-03T21:15:06.513Z,18.57
2023-09-03T21:17:07.737Z,18.53
2023-09-03T21:19:09.069Z,18.50
2023-09-03T21:21:12.967Z,18.45
2023-09-03T21:23:14.379Z,18.41
2023-09-03T21:25:18.078Z,18.39
2023-09-03T21:27:21.172Z,18.39
2023-09-03T21:29:22.864Z,18.42
2023-09-03T21:31:24.636Z,18.45
2023-09-03T21:33:26.423Z,18.47
2023-09-03T21:35:28.012Z,18.49
2023-09-03T21:37:29.455Z,18.49
2023-09-03T21:39:32.382Z,18.50
2023-09-03T21:41:33.671Z,18.47
2023-09-03T21:43:35.137Z,18.44
2023-09-03T21:45:36.825Z,18.41
2023-09-03T21:47:38.500Z,18.38
2023-09-03T21:49:41.158Z,18.37
2023-09-03T21:51:43.429Z,18.36
2023-09-03T21:53:45.970Z,18.35
2023-09-03T21:55:48.226Z,18.34
2023-09-03T21:57:49.507Z,18.34
2023-09-03T21:59:53.429Z,18.32
2023-09-03T22:01:54.751Z,18.28
2023-09-03T22:03:56.154Z,18.28
2023-09-03T22:05:57.641Z,18.26
2023-09-03T22:07:59.198Z,18.22
2023-09-03T22:10:00.723Z,18.18
2023-09-03T22:12:02.043Z,18.15
2023-09-03T22:14:03.427Z,18.12
2023-09-03T22:16:05.575Z,18.08
2023-09-03T22:18:07.244Z,18.03
2023-09-03T22:20:09.566Z,17.96
2023-09-03T22:22:11.735Z,17.90
2023-09-03T22:24:13.448Z,17.86
2023-09-03T22:26:15.531Z,17.81
2023-09-03T22:28:16.832Z,17.79
2023-09-03T22:30:18.376Z,17.80
2023-09-03T22:32:20.149Z,17.80
2023-09-03T22:34:21.589Z,17.83
2023-09-03T22:36:22.824Z,17.85
2023-09-03T22:38:24.249Z,17.86
2023-09-03T22:40:28.137Z,17.87
2023-09-03T22:42:29.392Z,17.87
2023-09-03T22:44:31.384Z,17.86
2023-09-03T22:46:32.736Z,17.86
2023-09-03T22:48:34.516Z,17.86
2023-09-03T22:50:36.312Z,17.84
2023-09-03T22:52:38.018Z,17.80
2023-09-03T22:54:39.421Z,17.75
2023-09-03T22:56:40.650Z,17.69
2023-09-03T22:58:42.298Z,17.66
2023-09-03T23:00:43.791Z,17.62
2023-09-03T23:02:45.347Z,17.59
2023-09-03T23:04:46.831Z,17.60
2023-09-03T23:06:48.187Z,17.61
2023-09-03T23:08:49.517Z,17.62
2023-09-03T23:10:51.973Z,17.63
2023-09-03T23:12:54.649Z,17.64
2023-09-03T23:14:55.899Z,17.64
2023-09-03T23:16:57.382Z,17.63
2023-09-03T23:18:58.776Z,17.62
2023-09-03T23:21:08.898Z,17.61
2023-09-03T23:23:11.259Z,17.60
2023-09-03T23:25:12.851Z,17.57
2023-09-03T23:27:14.223Z,17.55
2023-09-03T23:29:15.993Z,17.53
2023-09-03T23:31:18.608Z,17.49
2023-09-03T23:33:20.134Z,17.47
2023-09-03T23:35:21.853Z,17.44
2023-09-03T23:37:25.133Z,17.41
2023-09-03T23:39:27.804Z,17.39
2023-09-03T23:41:29.482Z,17.39
2023-09-03T23:43:31.302Z,17.37
2023-09-03T23:45:32.989Z,17.36
2023-09-03T23:47:36.548Z,17.33
2023-09-03T23:49:38.213Z,17.33
2023-09-03T23:51:39.759Z,17.32
2023-09-03T23:53:44.451Z,17.30
2023-09-03T23:55:45.734Z,17.28
2023-09-03T23:57:48.387Z,17.25
2023-09-03T23:59:49.818Z,17.22
